Pagina principale
METAR-TAF:

METAR-TAF

Aeroporti :

Agen, Francia

latitudine: 44-11N, longitudine: 000-36E, altezza: 61 m

Osservazione

Il bollettino è stato emesso 25 minuti fa, alle 03:00 UTC
Vento 3 kt da est
Temperature 3°C
Umidità 93%
Pressione 1030 hPa
Visibilità: 0250 m
nebbia

METAR: LFBA 240300Z AUTO 10003KT 0350 0250 R29/0300N FG VV/// 03/02 Q1030

Ora: 04:25 (03:25 UTC)

Previsione

Il bollettino è stato emesso 7 ore e 35 minuti fa, alle 19:50 UTC
Previsione valida dal 23 alle 19 UTC al 24 alle 03 UTC
Vento 2 kt da direzioni variabili
Visibilità: 2000 m
foschia
Temporaneamente
dal 23 alle 19 UTC al 24 alle 03 UTC
Visibilità: 0500 m
nebbia

TAF: LFBA 231950Z 2319/2403 VRB02KT 2000 BR NSC TEMPO 2319/2403 0500 FG VV///

Osservazioni e previsioni meteorologiche di più di 4000 aeroporti (messaggi METAR e TAF).

Le stazioni disponibili sono rappresentate dai dischi gialli e rossi sulla carta.

Puntare il mouse per vedere il nome della stazione.

Clicca sopra per visualizzare le osservazioni e previsioni meteorologiche.

Per cambiare la mappa : fare clic sui pulsanti verdi con una croce nera per ingrandire, il pulsante verde con un trattino per diminuire, o sulla freccia verde per le mappe adiacenti.


METAR-TAF: